• Join FlightAware (Why Join?)
  • Login
  • US Flag 
11:27PM EDT


 

Airport Tracker/Info


-or-


 

Live Flight TrackerFlight Track Log ✈ UPS1301 ✈ 24-Jul-2013 ✈ KATL - KSDF

Flight Track Log - Related Links

Times and Time Zones

All times are in EDT time to prevent confusion due to time zone crossing. See the UPS1301 flight status page for this flight to view local times or setup timezone preferences in your user account.

Time Position Orientation Groundspeed Altitude Reporting Facility
EDT Latitude Longitude Course Direction KTS MPH feet Rate Location/Type
10:51PM 33.6510 -84.4180 98° East 29 33  Level FlightAware
10:52PM 33.6510 -84.4140 90° East 17 20 420 Level FlightAware
10:52PM 33.6510 -84.4120 90° East 16 18 480 Level FlightAware
10:53PM 33.6510 -84.4100 90° East 25 29 600 Level FlightAware
10:53PM 33.6490 -84.4100 180° South 34 39 660 Level FlightAware
10:54PM 33.6480 -84.4080 121° Southeast 34 39 840 Level FlightAware
10:54PM 33.6480 -84.4060 90° East 31 36 1,020 Level FlightAware
10:55PM 33.6470 -84.4060 180° South 20 23 1,260 Level FlightAware
10:56PM 33.6470 -84.4080 270° West 60 69 1,740 Level FlightAware
10:56PM 33.6470 -84.4430 270° West 150 173 2,500 2,280 Climbing FlightAware
10:57PM 33.6480 -84.4670 273° West 181 208 2,800 1,020 Climbing FlightAware
10:57PM 33.6520 -84.4820 288° West 196 226 3,200 2,100 Climbing FlightAware
10:57PM 33.6650 -84.5090 300° West 220 253 4,300 2,280 Climbing FlightAware
10:58PM 33.6800 -84.5420 299° West 249 287 5,400 2,040 Climbing FlightAware
10:58PM 33.6960 -84.5540 328° Northwest 263 303 5,900 2,580 Climbing FlightAware
10:59PM 33.7310 -84.5600 352° North 272 313 7,300 3,000 Climbing FlightAware
10:59PM 33.7640 -84.5620 357° North 282 325 8,600 2,940 Climbing FlightAware
11:00PM 33.7990 -84.5650 356° North 289 333 9,900 3,000 Climbing FlightAware
11:00PM 33.8490 -84.5690 356° North 294 338 11,800 3,060 Climbing FlightAware
11:01PM 33.9100 -84.5730 357° North 297 342 14,100 2,700 Climbing FlightAware
11:02PM 33.9670 -84.5770 357° North 322 371 15,600 1,800 Climbing FlightAware
11:02PM 34.0240 -84.5830 355° North 355 409 16,400 1,440 Climbing FlightAware
11:03PM 34.0617 -84.5872 355° North 331 381 17,000 1,980 Climbing FlightAware ADS-B
11:03PM 34.1150 -84.5926 355° North 378 435 18,200 2,220 Climbing FlightAware ADS-B
11:04PM 34.1693 -84.5977 356° North 386 444 19,300 2,040 Climbing FlightAware ADS-B
11:04PM 34.2282 -84.6033 356° North 394 453 20,400 1,920 Climbing FlightAware ADS-B
11:05PM 34.2836 -84.6087 355° North 401 461 21,300 1,800 Climbing FlightAware ADS-B
11:05PM 34.3404 -84.6143 355° North 409 471 22,200 1,740 Climbing FlightAware ADS-B
11:06PM 34.3984 -84.6201 355° North 416 479 23,100 1,620 Climbing FlightAware ADS-B
11:06PM 34.4571 -84.6258 355° North 424 488 23,900 1,620 Climbing FlightAware ADS-B
11:07PM 34.5175 -84.6317 355° North 430 495 24,800 1,800 Climbing FlightAware ADS-B
11:07PM 34.5808 -84.6379 355° North 434 499 25,800 1,740 Climbing FlightAware ADS-B
11:08PM 34.6426 -84.6439 355° North 441 507 26,600 2,040 Climbing FlightAware ADS-B
11:08PM 34.7046 -84.6499 355° North 435 501 27,900 2,580 Climbing FlightAware ADS-B
11:09PM 34.7650 -84.6558 355° North 429 494 29,200 1,800 Climbing FlightAware ADS-B
11:09PM 34.8427 -84.6634 355° North 426 490 30,000 540 Climbing FlightAware ADS-B
11:10PM 34.9266 -84.6717 355° North 429 494 30,000  Level FlightAware ADS-B
11:11PM 35.0320 -84.6820 355° North 429 494 30,000  Level FlightAware
11:11PM 35.0622 -84.6852 355° North 429 494 30,000  Level FlightAware ADS-B
11:12PM 35.1217 -84.6913 355° North 431 496 30,000  Level FlightAware ADS-B
11:12PM 35.1815 -84.6973 355° North 428 493 30,000  Level FlightAware ADS-B
11:13PM 35.2406 -84.7033 355° North 426 490 30,000  Level FlightAware ADS-B
11:13PM 35.3000 -84.7094 355° North 426 490 30,000  Level FlightAware ADS-B
11:14PM 35.3590 -84.7154 355° North 425 489 30,000  Level FlightAware ADS-B
11:14PM 35.4184 -84.7215 355° North 423 487 30,000  Level FlightAware ADS-B
11:15PM 35.4769 -84.7276 355° North 423 487 30,000  Level FlightAware ADS-B
11:15PM 35.5356 -84.7339 355° North 423 487 30,000  Level FlightAware ADS-B
11:16PM 35.5940 -84.7399 355° North 422 486 30,000  Level FlightAware ADS-B
11:16PM 35.6524 -84.7460 355° North 422 486 30,000  Level FlightAware ADS-B
11:17PM 35.7182 -84.7529 355° North 422 486 30,000  Level FlightAware ADS-B
11:17PM 35.7794 -84.7594 355° North 425 489 30,000  Level FlightAware ADS-B
11:18PM 35.8382 -84.7655 355° North 425 489 30,000  Level FlightAware ADS-B
11:18PM 35.8988 -84.7716 355° North 426 490 30,000  Level FlightAware ADS-B
11:19PM 35.9676 -84.7787 355° North 426 490 30,000  Level FlightAware ADS-B
11:19PM 36.0293 -84.7851 355° North 425 489 30,000  Level FlightAware ADS-B
11:20PM 36.0886 -84.7912 355° North 424 488 30,000  Level FlightAware ADS-B
11:20PM 36.1473 -84.7972 355° North 424 488 30,000  Level FlightAware ADS-B
11:21PM 36.2080 -84.8035 355° North 423 487 30,000  Level FlightAware ADS-B
11:22PM 36.2771 -84.8106 355° North 423 487 30,000  Level FlightAware ADS-B
11:22PM 36.3569 -84.8186 355° North 423 487 30,000  Level FlightAware ADS-B
11:23PM 36.4191 -84.8247 355° North 423 487 30,000 -120 Level FlightAware ADS-B
11:23PM 36.4785 -84.8305 356° North 423 487 29,900 -660 Descending FlightAware ADS-B
11:24PM 36.5791 -84.8405 355° North 422 486 29,100 -1,200 Descending FlightAware ADS-B
11:25PM 36.6579 -84.8485 355° North 414 476 28,100 -2,160 Descending FlightAware ADS-B
11:25PM 36.7256 -84.8555 355° North 416 479 26,400 -3,180 Descending FlightAware ADS-B
11:26PM 36.7922 -84.8625 355° North 426 490 24,400 -3,000 Descending FlightAware ADS-B
11:26PM 36.8513 -84.8685 355° North 419 482 23,200 -2,340 Descending FlightAware ADS-B
11:27PM 36.9090 -84.8746 355° North 409 471 22,100 -2,280 Descending FlightAware ADS-B
11:28PM 36.9723 -84.8813 355° North 396 456 20,800 -2,400 Descending FlightAware ADS-B
11:28PM 37.0298 -84.8874 355° North 392 451 19,500 -1,680 Descending FlightAware ADS-B
11:29PM 37.1260 -84.8980 355° North 381 438 18,300 -600 Descending FlightAware
11:30PM 37.2300 -84.9090 355° North 381 438 18,300  Level FlightAware
11:31PM 37.2810 -84.9150 355° North 381 438 18,300 -3,360 Level FlightAware
11:31PM 37.3650 -84.9220 356° North 12,400 -4,680 Descending FlightAware
11:32PM 37.4250 -84.9290 355° North 310 357 11,800 -480 Descending FlightAware
11:33PM 37.4690 -84.9350 354° North 310 357 11,800 -720 Level FlightAware
11:34PM 37.5350 -84.9400 357° North 287 330 10,900 -840 Descending FlightAware
11:34PM 37.5840 -84.9450 355° North 284 327 10,700 -180 Descending FlightAware
11:35PM 37.6220 -84.9490 355° North 284 327 10,700  Level FlightAware
11:36PM 37.6760 -84.9550 355° North 284 327 10,700 -1,080 Level FlightAware
11:37PM 37.7590 -85.1290 301° West 274 315 8,000 -1,320 Descending FlightAware
11:38PM 37.7680 -85.1510 297° West 274 315 8,000  Level FlightAware
11:38PM 37.7840 -85.1940 295° West 273 314 8,000  Level FlightAware
11:38PM 37.7910 -85.2130 295° West 273 314 8,000 -480 Level FlightAware
11:39PM 37.8060 -85.2500 297° West 272 313 7,700 -1,080 Descending FlightAware
11:39PM 37.8200 -85.2870 296° West 272 313 7,100 -1,560 Descending FlightAware
11:40PM 37.8350 -85.3280 295° West 271 312 6,300 -1,680 Descending FlightAware
11:40PM 37.8410 -85.3450 294° West 271 312 6,000 -1,680 Descending FlightAware
11:40PM 37.8580 -85.3890 296° West 273 314 5,200 -1,140 Descending FlightAware
11:41PM 37.8700 -85.4230 294° West 271 312 5,000 -600 Descending FlightAware
11:41PM 37.8830 -85.4570 296° West 272 313 4,700 -1,020 Descending FlightAware
11:42PM 37.9000 -85.5020 296° West 271 312 4,100 -900 Descending FlightAware
11:42PM 37.9120 -85.5350 295° West 268 308 3,900 -120 Descending FlightAware
11:43PM 37.9300 -85.5820 296° West 272 313 4,000 120 Climbing FlightAware
11:43PM 37.9350 -85.5960 294° West 271 312 4,000 -480 Level FlightAware
11:43PM 37.9500 -85.6370 295° West 257 296 3,700 -540 Descending FlightAware
11:43PM 37.9590 -85.6540 304° West 246 283 3,600 -720 Descending FlightAware
11:44PM 37.9830 -85.6810 318° Northwest 225 259 3,200 -780 Descending FlightAware
11:44PM 38.0090 -85.6900 345° North 201 231 2,900 -360 Descending FlightAware
11:45PM 38.0310 -85.6970 346° North 183 211 2,900 -420 Level FlightAware
11:45PM 38.0560 -85.7060 344° North 177 204 2,500 -840 Descending FlightAware
11:46PM 38.0720 -85.7110 346° North 168 193 2,200 -900 Descending FlightAware
11:46PM 38.0910 -85.7170 346° North 132 152 1,800 -780 Descending FlightAware
11:47PM 38.1060 -85.7220 345° North 113 130 1,500 -600 Descending FlightAware
11:47PM 38.1120 -85.7240 345° North 113 130 1,400 -600 Descending FlightAware
11:47PM 38.1270 -85.7290 345° North 114 131 1,100 -720 Descending FlightAware
11:48PM 38.1400 -85.7330 346° North 115 132 800 -600 Descending FlightAware
11:48PM 38.1500 -85.7360 347° North 118 136 700 -300 Descending FlightAware
11:49PM 38.1700 -85.7430 345° North 118 136 500 -300 Descending FlightAware
11:49PM 38.1730 -85.7440 345° North 15 17 -1,260 Descending FlightAware
11:49PM 38.1740 -85.7430 38° Northeast 26 30  Level FlightAware
11:50PM 38.1740 -85.7420 90° East 27 31  Level FlightAware
11:50PM 38.1730 -85.7410 142° Southeast 17 20  Level FlightAware
11:50PM 38.1710 -85.7410 180° South 18 21  Level FlightAware
11:51PM 38.1690 -85.7400 159° South 12 14  Level FlightAware
11:56PM 38.1667 -85.7333 208° Southwest  Level FlightAware Approximate